createdAt,value
2019-03-16T00:02:19.990Z,10.62
2019-03-16T00:04:48.395Z,10.57
2019-03-16T00:07:16.771Z,10.17
2019-03-16T00:09:45.175Z,10.50
2019-03-16T00:12:13.579Z,10.51
2019-03-16T00:14:42.000Z,10.51
2019-03-16T00:17:10.387Z,10.53
2019-03-16T00:19:38.790Z,10.54
2019-03-16T00:22:07.246Z,10.52
2019-03-16T00:24:35.660Z,10.51
2019-03-16T00:27:04.192Z,10.50
2019-03-16T00:29:32.646Z,10.49
2019-03-16T00:32:12.818Z,10.46
2019-03-16T00:34:31.248Z,10.49
2019-03-16T00:36:59.621Z,10.49
2019-03-16T00:39:28.021Z,10.43
2019-03-16T00:41:56.425Z,10.41
2019-03-16T00:44:24.831Z,10.40
2019-03-16T00:46:53.226Z,10.42
2019-03-16T00:49:21.648Z,10.40
2019-03-16T00:51:50.101Z,10.38
2019-03-16T00:54:18.551Z,10.35
2019-03-16T00:56:46.923Z,10.42
2019-03-16T00:59:15.339Z,10.45
2019-03-16T01:01:43.728Z,10.41
2019-03-16T01:04:12.138Z,10.42
2019-03-16T01:06:40.522Z,10.46
2019-03-16T01:09:08.968Z,10.43
2019-03-16T01:11:37.425Z,10.40
2019-03-16T01:14:05.905Z,10.36
2019-03-16T01:16:34.331Z,10.36
2019-03-16T01:19:02.756Z,10.35
2019-03-16T01:21:31.244Z,9.98
2019-03-16T01:23:59.623Z,10.29
2019-03-16T01:26:28.052Z,10.32
2019-03-16T01:28:56.438Z,10.28
2019-03-16T01:31:24.843Z,10.26
2019-03-16T01:33:53.205Z,9.91
2019-03-16T01:36:21.618Z,10.22
2019-03-16T01:38:50.010Z,10.24
2019-03-16T01:41:18.499Z,10.20
2019-03-16T01:43:46.881Z,10.21
2019-03-16T01:46:15.299Z,10.20
2019-03-16T01:48:43.711Z,10.16
2019-03-16T01:51:12.092Z,10.19
2019-03-16T01:53:40.551Z,10.21
2019-03-16T01:56:08.918Z,10.15
2019-03-16T01:58:37.371Z,10.15
2019-03-16T02:01:05.844Z,10.15
2019-03-16T02:03:34.250Z,10.13
2019-03-16T02:06:02.634Z,10.18
2019-03-16T02:08:31.197Z,10.17
2019-03-16T02:10:59.650Z,10.16
2019-03-16T02:13:28.048Z,10.11
2019-03-16T02:16:09.937Z,10.18
2019-03-16T02:18:26.556Z,10.14
2019-03-16T02:20:55.089Z,10.17
2019-03-16T02:23:23.481Z,10.16
2019-03-16T02:25:51.885Z,10.20
2019-03-16T02:28:20.296Z,10.21
2019-03-16T02:30:48.694Z,10.21
2019-03-16T02:33:17.136Z,10.18
2019-03-16T02:35:45.484Z,10.18
2019-03-16T02:38:13.970Z,10.17
2019-03-16T02:40:42.373Z,10.18
2019-03-16T02:43:10.784Z,10.20
2019-03-16T02:45:39.165Z,10.20
2019-03-16T02:48:07.579Z,10.18
2019-03-16T02:50:35.971Z,10.08
2019-03-16T02:53:04.397Z,10.12
2019-03-16T02:55:32.784Z,10.11
2019-03-16T02:58:01.258Z,10.08
2019-03-16T03:00:29.682Z,10.06
2019-03-16T03:02:58.075Z,10.05
2019-03-16T03:05:26.484Z,10.03
2019-03-16T03:07:54.867Z,10.01
2019-03-16T03:10:23.288Z,10.06
2019-03-16T03:12:51.688Z,10.03
2019-03-16T03:15:20.160Z,10.01
2019-03-16T03:17:48.549Z,10.02
2019-03-16T03:20:16.977Z,10.01
2019-03-16T03:22:45.365Z,10.01
2019-03-16T03:25:13.844Z,10.00
2019-03-16T03:27:42.228Z,10.01
2019-03-16T03:30:14.109Z,10.03
2019-03-16T03:32:42.739Z,10.02
2019-03-16T03:35:11.411Z,10.00
2019-03-16T03:37:39.772Z,10.05
2019-03-16T03:40:11.907Z,10.04
2019-03-16T03:42:40.277Z,10.02
2019-03-16T03:45:10.822Z,10.01
2019-03-16T03:47:39.271Z,10.04
2019-03-16T03:50:10.451Z,9.71
2019-03-16T03:52:38.852Z,10.06
2019-03-16T03:55:09.526Z,10.06
2019-03-16T03:57:37.899Z,10.07
2019-03-16T04:00:18.483Z,10.02
2019-03-16T04:02:46.990Z,10.01
2019-03-16T04:05:15.459Z,10.03
2019-03-16T04:07:43.847Z,10.02
2019-03-16T04:10:13.426Z,10.08
2019-03-16T04:12:41.881Z,10.06
2019-03-16T04:15:11.648Z,10.07
2019-03-16T04:17:40.036Z,10.07
2019-03-16T04:20:10.870Z,10.11
2019-03-16T04:22:39.409Z,10.11
2019-03-16T04:25:07.966Z,10.10
2019-03-16T04:27:36.349Z,10.11
2019-03-16T04:30:06.766Z,10.11
2019-03-16T04:32:35.260Z,10.14
2019-03-16T04:35:04.058Z,10.16
2019-03-16T04:37:32.477Z,10.13
2019-03-16T04:40:00.852Z,10.17
2019-03-16T04:42:29.249Z,10.17
2019-03-16T04:44:57.656Z,10.20
2019-03-16T04:47:26.048Z,10.24
2019-03-16T04:49:54.442Z,10.25
2019-03-16T04:52:22.824Z,10.27
2019-03-16T04:54:51.214Z,9.92
2019-03-16T04:57:19.590Z,10.28
2019-03-16T04:59:47.970Z,10.30
2019-03-16T05:02:16.465Z,10.30
2019-03-16T05:04:44.867Z,10.30
2019-03-16T05:07:13.286Z,10.32
2019-03-16T05:09:41.659Z,10.28
2019-03-16T05:12:10.055Z,10.36
2019-03-16T05:14:38.461Z,10.35
2019-03-16T05:17:06.860Z,10.33
2019-03-16T05:19:35.286Z,10.39
2019-03-16T05:22:03.675Z,10.32
2019-03-16T05:24:32.094Z,10.38
2019-03-16T05:27:00.478Z,10.40
2019-03-16T05:29:28.894Z,10.41
2019-03-16T05:31:57.273Z,10.42
2019-03-16T05:34:25.725Z,10.43
2019-03-16T05:36:56.043Z,10.48
2019-03-16T05:39:24.306Z,10.52
2019-03-16T05:41:52.702Z,10.52
2019-03-16T05:44:21.080Z,10.53
2019-03-16T05:46:49.483Z,10.51
2019-03-16T05:49:17.845Z,10.54
2019-03-16T05:51:46.251Z,10.55
2019-03-16T05:54:14.629Z,10.51
2019-03-16T05:56:43.033Z,10.53
2019-03-16T05:59:11.420Z,10.50
2019-03-16T06:03:35.021Z,10.59
2019-03-16T06:06:03.510Z,10.50
2019-03-16T06:08:31.909Z,10.50
2019-03-16T06:11:00.346Z,10.50
2019-03-16T06:13:28.737Z,10.51
2019-03-16T06:15:57.200Z,10.50
2019-03-16T06:18:25.603Z,10.51
2019-03-16T06:20:54.050Z,10.53
2019-03-16T06:23:23.437Z,10.53
2019-03-16T06:25:51.813Z,10.57
2019-03-16T06:28:20.226Z,10.56
2019-03-16T06:30:48.607Z,10.57
2019-03-16T06:33:16.998Z,10.59
2019-03-16T06:35:45.397Z,10.58
2019-03-16T06:38:13.813Z,10.60
2019-03-16T06:40:42.235Z,10.59
2019-03-16T06:43:10.754Z,10.59
2019-03-16T06:45:39.370Z,10.57
2019-03-16T06:48:07.785Z,10.58
2019-03-16T06:50:36.180Z,10.61
2019-03-16T06:53:04.740Z,10.61
2019-03-16T06:55:33.170Z,10.65
2019-03-16T06:58:01.622Z,10.68
2019-03-16T07:00:30.046Z,10.71
2019-03-16T07:02:58.446Z,10.73
2019-03-16T07:05:37.487Z,10.80
2019-03-16T07:07:56.991Z,10.87
2019-03-16T07:10:25.660Z,10.94
2019-03-16T07:12:54.087Z,10.94
2019-03-16T07:15:22.564Z,10.95
2019-03-16T07:17:51.051Z,10.93
2019-03-16T07:20:19.464Z,10.89
2019-03-16T07:22:47.878Z,10.88
2019-03-16T07:25:16.275Z,10.86
2019-03-16T07:27:44.758Z,10.81
2019-03-16T07:30:14.159Z,10.76
2019-03-16T07:32:42.703Z,10.73
2019-03-16T07:35:11.274Z,10.69
2019-03-16T07:37:39.686Z,10.65
2019-03-16T07:40:10.698Z,10.64
2019-03-16T07:42:39.157Z,10.60
2019-03-16T07:45:09.813Z,10.53
2019-03-16T07:47:38.521Z,10.54
2019-03-16T07:50:11.860Z,10.50
2019-03-16T07:52:40.466Z,10.52
2019-03-16T07:55:09.532Z,10.49
2019-03-16T07:57:40.601Z,10.47
2019-03-16T08:00:10.504Z,10.47
2019-03-16T08:02:38.965Z,10.42
2019-03-16T08:05:18.008Z,10.39
2019-03-16T08:07:37.827Z,10.33
2019-03-16T08:10:08.965Z,10.31
2019-03-16T08:12:37.376Z,10.32
2019-03-16T08:15:07.926Z,10.30
2019-03-16T08:17:36.618Z,10.29
2019-03-16T08:20:07.496Z,10.25
2019-03-16T08:22:35.936Z,10.22
2019-03-16T08:25:05.042Z,10.23
2019-03-16T08:27:33.463Z,10.22
2019-03-16T08:30:01.873Z,10.28
2019-03-16T08:32:30.274Z,10.26
2019-03-16T08:35:00.436Z,10.25
2019-03-16T08:37:29.808Z,10.27
2019-03-16T08:39:58.424Z,10.28
2019-03-16T08:42:26.840Z,10.33
2019-03-16T08:44:55.305Z,10.41
2019-03-16T08:47:23.722Z,10.44
2019-03-16T08:49:52.143Z,10.60
2019-03-16T08:52:20.647Z,10.70
2019-03-16T08:54:49.037Z,10.74
2019-03-16T08:57:17.584Z,10.78
2019-03-16T08:59:45.982Z,10.80
2019-03-16T09:02:14.476Z,10.86
2019-03-16T09:04:43.152Z,10.86
2019-03-16T09:07:11.546Z,10.95
2019-03-16T09:09:39.979Z,10.90
2019-03-16T09:12:08.367Z,10.92
2019-03-16T09:14:36.779Z,10.87
2019-03-16T09:17:05.278Z,10.84
2019-03-16T09:19:33.688Z,10.84
2019-03-16T09:22:02.101Z,10.92
2019-03-16T09:24:30.564Z,10.98
2019-03-16T09:26:58.971Z,11.09
2019-03-16T09:29:27.416Z,11.11
2019-03-16T09:31:55.808Z,11.10
2019-03-16T09:34:24.301Z,11.11
2019-03-16T09:36:52.786Z,11.07
2019-03-16T09:39:21.254Z,11.09
2019-03-16T09:41:49.665Z,11.08
2019-03-16T09:44:18.072Z,11.04
2019-03-16T09:46:46.469Z,10.96
2019-03-16T09:49:15.001Z,10.97
2019-03-16T09:51:43.442Z,10.98
2019-03-16T09:54:11.849Z,11.15
2019-03-16T09:56:40.290Z,11.35
2019-03-16T09:59:08.702Z,11.32
2019-03-16T10:01:37.168Z,11.39
2019-03-16T10:04:05.588Z,11.38
2019-03-16T10:06:36.554Z,11.25
2019-03-16T10:09:05.987Z,11.27
2019-03-16T10:11:34.470Z,11.26
2019-03-16T10:14:02.870Z,11.26
2019-03-16T10:16:31.323Z,11.20
2019-03-16T10:18:59.745Z,11.13
2019-03-16T10:21:30.821Z,11.13
2019-03-16T10:23:59.361Z,11.11
2019-03-16T10:26:27.802Z,11.08
2019-03-16T10:28:56.196Z,11.14
2019-03-16T10:31:24.634Z,11.13
2019-03-16T10:33:53.035Z,11.12
2019-03-16T10:36:21.480Z,11.16
2019-03-16T10:38:49.880Z,11.16
2019-03-16T10:41:18.399Z,11.15
2019-03-16T10:43:46.826Z,11.09
2019-03-16T10:46:15.222Z,11.04
2019-03-16T10:48:43.722Z,11.03
2019-03-16T10:51:12.183Z,10.99
2019-03-16T10:53:40.610Z,10.97
2019-03-16T10:56:08.997Z,10.93
2019-03-16T10:58:37.454Z,10.94
2019-03-16T11:01:05.832Z,10.92
2019-03-16T11:03:34.233Z,10.96
2019-03-16T11:06:02.925Z,10.96
2019-03-16T11:08:31.325Z,10.94
2019-03-16T11:10:59.739Z,10.87
2019-03-16T11:13:28.242Z,10.81
2019-03-16T11:15:56.665Z,10.74
2019-03-16T11:18:25.075Z,10.66
2019-03-16T11:20:53.499Z,10.71
2019-03-16T11:23:21.937Z,10.80
2019-03-16T11:25:50.339Z,10.99
2019-03-16T11:28:18.887Z,11.63
2019-03-16T11:30:47.301Z,12.67
2019-03-16T11:33:15.703Z,12.51
2019-03-16T11:35:44.133Z,12.22
2019-03-16T11:38:12.708Z,11.83
2019-03-16T11:40:41.150Z,11.58
2019-03-16T11:43:09.562Z,12.01
2019-03-16T11:45:37.979Z,12.40
2019-03-16T11:48:06.396Z,13.08
2019-03-16T11:50:34.885Z,13.82
2019-03-16T11:53:03.384Z,14.11
2019-03-16T11:55:31.805Z,14.62
2019-03-16T11:58:00.218Z,14.46
2019-03-16T12:00:28.652Z,13.52
2019-03-16T12:02:57.048Z,13.01
2019-03-16T12:05:25.490Z,12.77
2019-03-16T12:07:53.992Z,12.65
2019-03-16T12:10:22.404Z,12.59
2019-03-16T12:12:50.993Z,12.41
2019-03-16T12:15:19.428Z,12.37
2019-03-16T12:17:47.888Z,12.28
2019-03-16T12:20:18.434Z,12.23
2019-03-16T12:22:47.239Z,12.99
2019-03-16T12:25:15.664Z,13.28
2019-03-16T12:27:44.080Z,13.14
2019-03-16T12:30:13.850Z,12.85
2019-03-16T12:32:42.399Z,12.80
2019-03-16T12:35:11.176Z,12.73
2019-03-16T12:37:39.578Z,12.73
2019-03-16T12:40:15.480Z,12.93
2019-03-16T12:42:43.942Z,13.50
2019-03-16T12:45:20.842Z,13.51
2019-03-16T12:47:49.506Z,13.03
2019-03-16T12:50:18.080Z,12.95
2019-03-16T12:52:46.561Z,12.96
2019-03-16T12:55:15.046Z,13.00
2019-03-16T12:57:43.433Z,12.72
2019-03-16T13:00:14.234Z,12.59
2019-03-16T13:02:42.746Z,12.44
2019-03-16T13:05:11.394Z,12.50
2019-03-16T13:07:39.821Z,12.85
2019-03-16T13:10:11.476Z,12.85
2019-03-16T13:12:39.959Z,12.82
2019-03-16T13:15:09.188Z,12.87
2019-03-16T13:17:37.611Z,13.09
2019-03-16T13:20:08.578Z,14.89
2019-03-16T13:22:37.004Z,15.33
2019-03-16T13:25:08.442Z,14.81
2019-03-16T13:27:36.857Z,14.03
2019-03-16T13:30:13.941Z,14.22
2019-03-16T13:32:42.364Z,13.56
2019-03-16T13:35:11.124Z,13.16
2019-03-16T13:37:39.666Z,12.90
2019-03-16T13:40:15.942Z,12.83
2019-03-16T13:42:44.483Z,12.88
2019-03-16T13:45:13.045Z,13.01
2019-03-16T13:47:41.520Z,13.30
2019-03-16T13:50:12.888Z,13.70
2019-03-16T13:52:41.518Z,13.75
2019-03-16T13:55:10.213Z,13.45
2019-03-16T13:57:39.170Z,13.28
2019-03-16T14:00:15.533Z,13.45
2019-03-16T14:02:43.987Z,13.25
2019-03-16T14:05:12.386Z,13.39
2019-03-16T14:07:41.130Z,15.09
2019-03-16T14:10:15.957Z,17.53
2019-03-16T14:12:44.368Z,17.14
2019-03-16T14:15:12.915Z,15.78
2019-03-16T14:17:41.568Z,15.38
2019-03-16T14:20:12.529Z,15.45
2019-03-16T14:22:40.944Z,16.71
2019-03-16T14:25:09.900Z,17.22
2019-03-16T14:27:38.381Z,18.63
2019-03-16T14:30:25.660Z,17.85
2019-03-16T14:32:45.432Z,16.90
2019-03-16T14:35:14.277Z,16.84
2019-03-16T14:37:42.726Z,17.32
2019-03-16T14:40:13.067Z,18.04
2019-03-16T14:42:41.663Z,17.27
2019-03-16T14:45:11.916Z,16.41
2019-03-16T14:47:40.434Z,15.63
2019-03-16T14:50:16.295Z,15.11
2019-03-16T14:52:44.605Z,14.80
2019-03-16T14:55:13.117Z,14.59
2019-03-16T14:57:41.704Z,14.99
2019-03-16T15:00:15.746Z,16.54
2019-03-16T15:02:46.091Z,18.10
2019-03-16T15:05:14.686Z,19.16
2019-03-16T15:07:43.081Z,19.84
2019-03-16T15:10:15.519Z,19.62
2019-03-16T15:12:44.040Z,18.48
2019-03-16T15:15:15.559Z,17.15
2019-03-16T15:17:44.044Z,16.29
2019-03-16T15:20:13.021Z,16.33
2019-03-16T15:22:41.473Z,15.53
2019-03-16T15:25:11.511Z,15.37
2019-03-16T15:27:40.266Z,15.59
2019-03-16T15:30:14.198Z,14.99
2019-03-16T15:32:42.615Z,14.62
2019-03-16T15:35:11.170Z,13.92
2019-03-16T15:37:39.737Z,13.76
2019-03-16T15:40:12.760Z,14.12
2019-03-16T15:42:41.502Z,14.01
2019-03-16T15:45:16.234Z,13.77
2019-03-16T15:47:44.677Z,13.64
2019-03-16T15:50:13.202Z,13.56
2019-03-16T15:52:41.621Z,13.28
2019-03-16T15:55:10.362Z,13.27
2019-03-16T15:57:38.857Z,13.32
2019-03-16T16:00:13.352Z,13.24
2019-03-16T16:02:41.981Z,13.19
2019-03-16T16:05:10.704Z,13.22
2019-03-16T16:07:39.213Z,13.20
2019-03-16T16:10:10.705Z,13.26
2019-03-16T16:12:39.272Z,13.42
2019-03-16T16:15:11.439Z,13.45
2019-03-16T16:17:40.144Z,13.50
2019-03-16T16:20:11.725Z,13.41
2019-03-16T16:22:40.145Z,13.31
2019-03-16T16:25:10.749Z,13.30
2019-03-16T16:27:39.304Z,13.35
2019-03-16T16:30:15.606Z,13.48
2019-03-16T16:32:44.057Z,13.58
2019-03-16T16:35:13.627Z,13.74
2019-03-16T16:37:42.174Z,13.77
2019-03-16T16:40:12.928Z,13.83
2019-03-16T16:42:41.396Z,13.78
2019-03-16T16:45:14.724Z,13.72
2019-03-16T16:47:43.270Z,13.66
2019-03-16T16:50:25.300Z,13.60
2019-03-16T16:52:53.950Z,13.51
2019-03-16T16:55:22.520Z,13.33
2019-03-16T16:57:50.987Z,13.23
2019-03-16T17:00:21.601Z,13.18
2019-03-16T17:02:50.095Z,13.04
2019-03-16T17:05:18.484Z,13.08
2019-03-16T17:07:46.976Z,12.92
2019-03-16T17:10:16.025Z,12.79
2019-03-16T17:12:44.868Z,12.73
2019-03-16T17:15:23.404Z,12.52
2019-03-16T17:17:51.926Z,12.34
2019-03-16T17:20:20.526Z,12.18
2019-03-16T17:22:48.919Z,12.17
2019-03-16T17:25:17.384Z,12.14
2019-03-16T17:27:45.845Z,12.07
2019-03-16T17:30:31.132Z,11.87
2019-03-16T17:32:59.700Z,11.68
2019-03-16T17:35:28.126Z,11.73
2019-03-16T17:37:56.558Z,11.56
2019-03-16T17:40:25.001Z,11.37
2019-03-16T17:42:53.402Z,11.23
2019-03-16T17:45:21.802Z,11.12
2019-03-16T17:47:50.283Z,11.04
2019-03-16T17:50:18.712Z,10.87
2019-03-16T17:52:47.135Z,10.68
2019-03-16T17:55:17.748Z,10.58
2019-03-16T17:57:46.275Z,10.38
2019-03-16T18:00:19.317Z,10.20
2019-03-16T18:02:52.689Z,10.06
2019-03-16T18:05:18.875Z,9.91
2019-03-16T18:07:47.359Z,9.73
2019-03-16T18:10:16.015Z,9.62
2019-03-16T18:12:44.490Z,9.51
2019-03-16T18:15:15.957Z,9.53
2019-03-16T18:17:44.520Z,9.36
2019-03-16T18:20:17.376Z,9.22
2019-03-16T18:22:45.047Z,9.09
2019-03-16T18:25:14.064Z,8.92
2019-03-16T18:27:42.512Z,8.82
2019-03-16T18:30:16.528Z,8.78
2019-03-16T18:32:44.936Z,8.68
2019-03-16T18:35:13.475Z,8.54
2019-03-16T18:37:41.902Z,8.51
2019-03-16T18:40:12.578Z,8.36
2019-03-16T18:42:41.056Z,8.24
2019-03-16T18:45:12.510Z,8.11
2019-03-16T18:47:40.926Z,8.10
2019-03-16T18:50:09.493Z,8.00
2019-03-16T18:52:37.998Z,7.98
2019-03-16T18:55:11.735Z,7.91
2019-03-16T18:57:40.447Z,7.73
2019-03-16T19:00:16.790Z,7.70
2019-03-16T19:02:45.322Z,7.56
2019-03-16T19:05:13.800Z,7.51
2019-03-16T19:07:42.287Z,7.48
2019-03-16T19:10:17.245Z,7.53
2019-03-16T19:12:45.807Z,7.41
2019-03-16T19:15:16.353Z,7.35
2019-03-16T19:17:57.600Z,7.27
2019-03-16T19:20:16.008Z,7.21
2019-03-16T19:22:44.562Z,7.19
2019-03-16T19:25:20.969Z,7.08
2019-03-16T19:27:49.528Z,7.09
2019-03-16T19:30:18.595Z,6.97
2019-03-16T19:32:47.132Z,6.94
2019-03-16T19:35:15.620Z,6.78
2019-03-16T19:37:44.210Z,6.78
2019-03-16T19:40:19.697Z,6.72
2019-03-16T19:42:48.183Z,6.68
2019-03-16T19:45:16.604Z,6.52
2019-03-16T19:47:45.153Z,6.43
2019-03-16T19:50:17.512Z,6.35
2019-03-16T19:52:45.995Z,6.29
2019-03-16T19:55:15.083Z,6.24
2019-03-16T19:57:43.568Z,6.30
2019-03-16T20:00:19.493Z,6.19
2019-03-16T20:02:51.382Z,6.17
2019-03-16T20:05:19.266Z,6.19
2019-03-16T20:07:47.661Z,6.14
2019-03-16T20:10:17.484Z,6.04
2019-03-16T20:12:46.007Z,5.99
2019-03-16T20:15:17.130Z,6.03
2019-03-16T20:17:45.668Z,6.02
2019-03-16T20:20:16.257Z,5.87
2019-03-16T20:22:44.855Z,5.91
2019-03-16T20:25:13.637Z,5.81
2019-03-16T20:27:42.239Z,5.65
2019-03-16T20:30:12.277Z,5.71
2019-03-16T20:32:40.806Z,5.69
2019-03-16T20:35:09.853Z,5.62
2019-03-16T20:37:38.667Z,5.60
2019-03-16T20:40:10.347Z,5.60
2019-03-16T20:42:38.838Z,5.63
2019-03-16T20:45:09.019Z,5.58
2019-03-16T20:47:37.581Z,5.48
2019-03-16T20:50:12.687Z,5.47
2019-03-16T20:53:00.413Z,5.50
2019-03-16T20:55:28.852Z,5.46
2019-03-16T20:57:57.279Z,5.36
2019-03-16T21:03:34.817Z,5.26
2019-03-16T21:06:03.229Z,5.19
2019-03-16T21:08:31.644Z,5.08
2019-03-16T21:11:00.113Z,4.98
2019-03-16T21:13:28.506Z,4.92
2019-03-16T21:15:56.909Z,4.89
2019-03-16T21:18:25.325Z,4.88
2019-03-16T21:20:54.251Z,4.85
2019-03-16T21:23:22.738Z,4.86
2019-03-16T21:25:51.165Z,4.78
2019-03-16T21:28:19.588Z,4.78
2019-03-16T21:30:48.005Z,4.78
2019-03-16T21:33:28.618Z,4.77
2019-03-16T21:35:46.710Z,4.72
2019-03-16T21:38:15.101Z,4.66
2019-03-16T21:40:43.596Z,4.59
2019-03-16T21:43:11.974Z,4.59
2019-03-16T21:45:40.402Z,4.62
2019-03-16T21:48:08.814Z,4.49
2019-03-16T21:50:37.337Z,4.39
2019-03-16T21:53:05.823Z,4.28
2019-03-16T21:55:34.265Z,4.23
2019-03-16T21:58:02.663Z,4.28
2019-03-16T22:00:31.127Z,4.20
2019-03-16T22:02:59.549Z,4.17
2019-03-16T22:05:28.015Z,4.12
2019-03-16T22:07:56.431Z,4.06
2019-03-16T22:10:24.889Z,3.99
2019-03-16T22:12:56.534Z,3.92
2019-03-16T22:15:24.945Z,3.89
2019-03-16T22:17:53.432Z,3.94
2019-03-16T22:20:22.244Z,3.61
2019-03-16T22:22:50.719Z,3.54
2019-03-16T22:25:19.246Z,3.81
2019-03-16T22:27:47.764Z,3.48
2019-03-16T22:30:17.839Z,3.87
2019-03-16T22:32:46.309Z,3.80
2019-03-16T22:35:14.790Z,3.80
2019-03-16T22:37:43.348Z,3.82
2019-03-16T22:40:13.839Z,3.83
2019-03-16T22:42:42.399Z,3.81
2019-03-16T22:45:12.543Z,3.78
2019-03-16T22:47:41.004Z,3.76
2019-03-16T22:50:20.617Z,3.76
2019-03-16T22:52:49.121Z,3.75
2019-03-16T22:55:17.587Z,3.71
2019-03-16T22:57:46.118Z,3.78
2019-03-16T23:00:19.217Z,3.70
2019-03-16T23:02:47.617Z,3.61
2019-03-16T23:05:16.069Z,3.59
2019-03-16T23:07:44.548Z,3.57
2019-03-16T23:10:13.402Z,3.56
2019-03-16T23:12:41.886Z,3.49
2019-03-16T23:15:11.496Z,3.43
2019-03-16T23:17:39.903Z,3.39
2019-03-16T23:20:09.640Z,3.36
2019-03-16T23:22:38.100Z,3.34
2019-03-16T23:25:10.940Z,3.36
2019-03-16T23:27:39.373Z,3.38
2019-03-16T23:30:09.529Z,3.36
2019-03-16T23:32:37.933Z,3.34
2019-03-16T23:35:07.788Z,3.35
2019-03-16T23:37:36.204Z,3.36
2019-03-16T23:40:07.709Z,3.35
2019-03-16T23:42:36.144Z,3.37
2019-03-16T23:45:06.515Z,3.35
2019-03-16T23:47:35.837Z,3.30
2019-03-16T23:50:05.848Z,3.34
2019-03-16T23:52:36.895Z,3.32
2019-03-16T23:55:06.096Z,3.26
2019-03-16T23:57:34.501Z,3.29
